sensor_id;sensor_type;location;lat;lon;timestamp;P1;durP1;ratioP1;P2;durP2;ratioP2
16624;SDS011;8426;48.496;9.098;2023-12-22T00:00:08;0.98;;;0.45;;
16624;SDS011;8426;48.496;9.098;2023-12-22T00:05:14;1.85;;;0.45;;
16624;SDS011;8426;48.496;9.098;2023-12-22T00:10:18;7.63;;;0.82;;
16624;SDS011;8426;48.496;9.098;2023-12-22T00:15:21;2.53;;;0.93;;
16624;SDS011;8426;48.496;9.098;2023-12-22T00:20:32;4.82;;;0.80;;
16624;SDS011;8426;48.496;9.098;2023-12-22T00:25:35;6.82;;;0.85;;
16624;SDS011;8426;48.496;9.098;2023-12-22T00:30:39;4.20;;;1.05;;
16624;SDS011;8426;48.496;9.098;2023-12-22T00:35:44;5.95;;;1.05;;
16624;SDS011;8426;48.496;9.098;2023-12-22T00:40:48;5.97;;;1.00;;
16624;SDS011;8426;48.496;9.098;2023-12-22T00:45:53;6.97;;;0.80;;
16624;SDS011;8426;48.496;9.098;2023-12-22T00:50:59;9.65;;;1.92;;
16624;SDS011;8426;48.496;9.098;2023-12-22T00:56:03;5.75;;;0.77;;
16624;SDS011;8426;48.496;9.098;2023-12-22T01:01:09;10.80;;;1.05;;
16624;SDS011;8426;48.496;9.098;2023-12-22T01:06:15;10.52;;;1.08;;
16624;SDS011;8426;48.496;9.098;2023-12-22T01:11:22;1.80;;;0.70;;
16624;SDS011;8426;48.496;9.098;2023-12-22T01:16:26;1.77;;;0.80;;
16624;SDS011;8426;48.496;9.098;2023-12-22T01:21:34;5.10;;;1.00;;
16624;SDS011;8426;48.496;9.098;2023-12-22T01:26:38;5.38;;;0.68;;
16624;SDS011;8426;48.496;9.098;2023-12-22T01:31:48;3.83;;;0.70;;
16624;SDS011;8426;48.496;9.098;2023-12-22T01:36:55;0.88;;;0.57;;
16624;SDS011;8426;48.496;9.098;2023-12-22T01:41:59;0.47;;;0.40;;
16624;SDS011;8426;48.496;9.098;2023-12-22T01:47:03;2.58;;;0.60;;
16624;SDS011;8426;48.496;9.098;2023-12-22T01:52:09;2.63;;;0.82;;
16624;SDS011;8426;48.496;9.098;2023-12-22T01:57:14;0.73;;;0.40;;
16624;SDS011;8426;48.496;9.098;2023-12-22T02:02:21;0.43;;;0.30;;
16624;SDS011;8426;48.496;9.098;2023-12-22T02:07:27;1.77;;;0.40;;
16624;SDS011;8426;48.496;9.098;2023-12-22T02:12:32;0.57;;;0.50;;
16624;SDS011;8426;48.496;9.098;2023-12-22T02:17:39;10.93;;;0.88;;
16624;SDS011;8426;48.496;9.098;2023-12-22T02:22:52;1.10;;;0.55;;
16624;SDS011;8426;48.496;9.098;2023-12-22T02:28:05;1.75;;;0.80;;
16624;SDS011;8426;48.496;9.098;2023-12-22T02:33:10;7.07;;;0.88;;
16624;SDS011;8426;48.496;9.098;2023-12-22T02:38:31;3.53;;;0.88;;
16624;SDS011;8426;48.496;9.098;2023-12-22T02:43:37;2.80;;;0.98;;
16624;SDS011;8426;48.496;9.098;2023-12-22T02:48:41;2.53;;;0.90;;
16624;SDS011;8426;48.496;9.098;2023-12-22T02:53:46;2.83;;;0.77;;
16624;SDS011;8426;48.496;9.098;2023-12-22T02:58:50;6.38;;;0.98;;
16624;SDS011;8426;48.496;9.098;2023-12-22T03:03:57;2.13;;;0.88;;
16624;SDS011;8426;48.496;9.098;2023-12-22T03:09:02;4.93;;;0.80;;
16624;SDS011;8426;48.496;9.098;2023-12-22T03:14:05;1.75;;;0.30;;
16624;SDS011;8426;48.496;9.098;2023-12-22T03:19:09;1.70;;;0.50;;
16624;SDS011;8426;48.496;9.098;2023-12-22T03:24:16;4.05;;;0.60;;
16624;SDS011;8426;48.496;9.098;2023-12-22T03:29:21;2.05;;;0.55;;
16624;SDS011;8426;48.496;9.098;2023-12-22T03:34:24;3.85;;;0.98;;
16624;SDS011;8426;48.496;9.098;2023-12-22T03:39:29;3.42;;;0.80;;
16624;SDS011;8426;48.496;9.098;2023-12-22T03:44:35;0.50;;;0.40;;
16624;SDS011;8426;48.496;9.098;2023-12-22T03:49:41;1.48;;;0.43;;
16624;SDS011;8426;48.496;9.098;2023-12-22T03:54:46;3.47;;;0.60;;
16624;SDS011;8426;48.496;9.098;2023-12-22T03:59:52;2.25;;;0.50;;
16624;SDS011;8426;48.496;9.098;2023-12-22T04:04:59;1.60;;;0.57;;
16624;SDS011;8426;48.496;9.098;2023-12-22T04:10:06;2.42;;;0.52;;
16624;SDS011;8426;48.496;9.098;2023-12-22T04:15:10;5.50;;;1.13;;
16624;SDS011;8426;48.496;9.098;2023-12-22T04:20:14;3.63;;;0.73;;
16624;SDS011;8426;48.496;9.098;2023-12-22T04:30:33;7.00;;;1.15;;
16624;SDS011;8426;48.496;9.098;2023-12-22T04:35:44;3.75;;;0.73;;
16624;SDS011;8426;48.496;9.098;2023-12-22T04:40:49;0.82;;;0.47;;
16624;SDS011;8426;48.496;9.098;2023-12-22T04:46:00;5.22;;;0.98;;
16624;SDS011;8426;48.496;9.098;2023-12-22T04:51:04;4.63;;;1.05;;
16624;SDS011;8426;48.496;9.098;2023-12-22T04:56:11;2.58;;;0.75;;
16624;SDS011;8426;48.496;9.098;2023-12-22T05:01:15;4.80;;;1.10;;
16624;SDS011;8426;48.496;9.098;2023-12-22T05:06:20;7.13;;;1.05;;
16624;SDS011;8426;48.496;9.098;2023-12-22T05:11:25;7.40;;;0.98;;
16624;SDS011;8426;48.496;9.098;2023-12-22T05:16:29;10.77;;;1.55;;
16624;SDS011;8426;48.496;9.098;2023-12-22T05:21:33;10.75;;;1.50;;
16624;SDS011;8426;48.496;9.098;2023-12-22T05:26:38;4.95;;;1.92;;
16624;SDS011;8426;48.496;9.098;2023-12-22T05:31:54;5.60;;;1.45;;
16624;SDS011;8426;48.496;9.098;2023-12-22T05:36:58;7.75;;;1.20;;
16624;SDS011;8426;48.496;9.098;2023-12-22T05:42:04;8.82;;;1.20;;
16624;SDS011;8426;48.496;9.098;2023-12-22T05:47:09;8.45;;;1.75;;
16624;SDS011;8426;48.496;9.098;2023-12-22T05:52:15;10.20;;;1.30;;
16624;SDS011;8426;48.496;9.098;2023-12-22T05:57:22;9.32;;;1.33;;
16624;SDS011;8426;48.496;9.098;2023-12-22T06:02:28;9.05;;;1.55;;
16624;SDS011;8426;48.496;9.098;2023-12-22T06:07:32;9.52;;;2.08;;
16624;SDS011;8426;48.496;9.098;2023-12-22T06:12:43;4.53;;;1.15;;
16624;SDS011;8426;48.496;9.098;2023-12-22T06:17:47;6.22;;;1.13;;
16624;SDS011;8426;48.496;9.098;2023-12-22T06:22:51;7.95;;;1.20;;
16624;SDS011;8426;48.496;9.098;2023-12-22T06:27:58;6.60;;;1.02;;
16624;SDS011;8426;48.496;9.098;2023-12-22T06:33:02;8.45;;;1.13;;
16624;SDS011;8426;48.496;9.098;2023-12-22T06:38:08;8.10;;;1.20;;
16624;SDS011;8426;48.496;9.098;2023-12-22T06:43:15;5.07;;;1.10;;
16624;SDS011;8426;48.496;9.098;2023-12-22T06:48:18;3.83;;;1.40;;
16624;SDS011;8426;48.496;9.098;2023-12-22T06:53:25;4.82;;;1.50;;
16624;SDS011;8426;48.496;9.098;2023-12-22T06:58:30;7.40;;;1.73;;
16624;SDS011;8426;48.496;9.098;2023-12-22T07:03:37;12.27;;;1.67;;
16624;SDS011;8426;48.496;9.098;2023-12-22T07:08:41;7.75;;;1.05;;
16624;SDS011;8426;48.496;9.098;2023-12-22T07:13:46;5.68;;;1.23;;
16624;SDS011;8426;48.496;9.098;2023-12-22T07:18:50;7.65;;;1.50;;
16624;SDS011;8426;48.496;9.098;2023-12-22T07:24:00;10.38;;;1.40;;
16624;SDS011;8426;48.496;9.098;2023-12-22T07:29:05;4.30;;;1.20;;
16624;SDS011;8426;48.496;9.098;2023-12-22T07:34:11;6.15;;;1.35;;
16624;SDS011;8426;48.496;9.098;2023-12-22T07:39:15;12.25;;;1.38;;
16624;SDS011;8426;48.496;9.098;2023-12-22T07:44:21;9.57;;;1.88;;
16624;SDS011;8426;48.496;9.098;2023-12-22T07:49:25;5.30;;;1.40;;
16624;SDS011;8426;48.496;9.098;2023-12-22T07:54:31;11.75;;;1.65;;
16624;SDS011;8426;48.496;9.098;2023-12-22T07:59:36;5.43;;;1.25;;
16624;SDS011;8426;48.496;9.098;2023-12-22T08:04:40;6.68;;;1.33;;
16624;SDS011;8426;48.496;9.098;2023-12-22T08:09:44;9.82;;;1.17;;
16624;SDS011;8426;48.496;9.098;2023-12-22T08:14:49;25.10;;;1.35;;
16624;SDS011;8426;48.496;9.098;2023-12-22T08:19:58;8.20;;;2.08;;
16624;SDS011;8426;48.496;9.098;2023-12-22T08:25:12;6.70;;;1.50;;
16624;SDS011;8426;48.496;9.098;2023-12-22T08:30:18;4.60;;;1.45;;
16624;SDS011;8426;48.496;9.098;2023-12-22T08:35:22;7.55;;;1.38;;
16624;SDS011;8426;48.496;9.098;2023-12-22T08:40:26;4.18;;;1.00;;
16624;SDS011;8426;48.496;9.098;2023-12-22T08:45:31;8.57;;;1.50;;
16624;SDS011;8426;48.496;9.098;2023-12-22T08:50:35;8.63;;;1.23;;
16624;SDS011;8426;48.496;9.098;2023-12-22T08:55:39;7.05;;;1.05;;
16624;SDS011;8426;48.496;9.098;2023-12-22T09:00:47;5.55;;;1.45;;
16624;SDS011;8426;48.496;9.098;2023-12-22T09:06:00;10.77;;;2.03;;
16624;SDS011;8426;48.496;9.098;2023-12-22T09:11:04;12.90;;;1.48;;
16624;SDS011;8426;48.496;9.098;2023-12-22T09:16:10;8.50;;;1.50;;
16624;SDS011;8426;48.496;9.098;2023-12-22T09:21:17;4.80;;;1.40;;
16624;SDS011;8426;48.496;9.098;2023-12-22T09:26:20;9.65;;;1.38;;
16624;SDS011;8426;48.496;9.098;2023-12-22T09:31:26;8.15;;;1.35;;
16624;SDS011;8426;48.496;9.098;2023-12-22T09:36:29;8.75;;;1.38;;
16624;SDS011;8426;48.496;9.098;2023-12-22T09:41:34;7.57;;;1.35;;
16624;SDS011;8426;48.496;9.098;2023-12-22T09:46:39;11.10;;;2.00;;
16624;SDS011;8426;48.496;9.098;2023-12-22T09:51:45;16.45;;;1.88;;
16624;SDS011;8426;48.496;9.098;2023-12-22T09:56:50;4.97;;;1.27;;
16624;SDS011;8426;48.496;9.098;2023-12-22T10:01:57;10.30;;;1.45;;
16624;SDS011;8426;48.496;9.098;2023-12-22T10:07:07;13.27;;;1.50;;
16624;SDS011;8426;48.496;9.098;2023-12-22T10:12:14;7.63;;;1.90;;
16624;SDS011;8426;48.496;9.098;2023-12-22T10:17:23;8.82;;;1.65;;
16624;SDS011;8426;48.496;9.098;2023-12-22T10:22:27;7.70;;;1.80;;
16624;SDS011;8426;48.496;9.098;2023-12-22T10:27:31;8.00;;;1.90;;
16624;SDS011;8426;48.496;9.098;2023-12-22T10:32:38;14.73;;;1.52;;
16624;SDS011;8426;48.496;9.098;2023-12-22T10:37:45;6.05;;;1.50;;
16624;SDS011;8426;48.496;9.098;2023-12-22T10:42:52;13.75;;;1.65;;
16624;SDS011;8426;48.496;9.098;2023-12-22T10:47:57;6.68;;;1.58;;
16624;SDS011;8426;48.496;9.098;2023-12-22T10:53:05;8.35;;;2.38;;
16624;SDS011;8426;48.496;9.098;2023-12-22T10:58:09;5.75;;;1.35;;
16624;SDS011;8426;48.496;9.098;2023-12-22T11:03:23;5.82;;;1.52;;
16624;SDS011;8426;48.496;9.098;2023-12-22T11:08:29;7.55;;;1.50;;
16624;SDS011;8426;48.496;9.098;2023-12-22T11:13:35;5.50;;;1.17;;
16624;SDS011;8426;48.496;9.098;2023-12-22T11:18:43;9.57;;;1.70;;
16624;SDS011;8426;48.496;9.098;2023-12-22T11:23:47;7.20;;;2.05;;
16624;SDS011;8426;48.496;9.098;2023-12-22T11:28:53;6.30;;;1.35;;
16624;SDS011;8426;48.496;9.098;2023-12-22T11:33:58;4.43;;;1.20;;
16624;SDS011;8426;48.496;9.098;2023-12-22T11:39:12;6.78;;;1.45;;
16624;SDS011;8426;48.496;9.098;2023-12-22T11:44:16;7.10;;;1.42;;
16624;SDS011;8426;48.496;9.098;2023-12-22T11:49:21;6.10;;;1.00;;
16624;SDS011;8426;48.496;9.098;2023-12-22T11:54:45;3.92;;;0.73;;
16624;SDS011;8426;48.496;9.098;2023-12-22T11:59:50;4.38;;;0.80;;
16624;SDS011;8426;48.496;9.098;2023-12-22T12:05:01;3.75;;;0.68;;
16624;SDS011;8426;48.496;9.098;2023-12-22T12:10:08;1.20;;;0.70;;
16624;SDS011;8426;48.496;9.098;2023-12-22T12:15:16;2.10;;;0.88;;
16624;SDS011;8426;48.496;9.098;2023-12-22T12:20:32;1.77;;;0.43;;
16624;SDS011;8426;48.496;9.098;2023-12-22T12:25:39;3.58;;;1.00;;
16624;SDS011;8426;48.496;9.098;2023-12-22T12:30:46;2.10;;;0.50;;
16624;SDS011;8426;48.496;9.098;2023-12-22T12:35:54;2.97;;;0.70;;
16624;SDS011;8426;48.496;9.098;2023-12-22T12:41:00;2.40;;;0.60;;
16624;SDS011;8426;48.496;9.098;2023-12-22T12:46:13;1.70;;;0.73;;
16624;SDS011;8426;48.496;9.098;2023-12-22T12:51:19;1.42;;;0.43;;
16624;SDS011;8426;48.496;9.098;2023-12-22T12:56:23;2.47;;;0.60;;
16624;SDS011;8426;48.496;9.098;2023-12-22T13:01:26;1.35;;;0.60;;
16624;SDS011;8426;48.496;9.098;2023-12-22T13:06:45;0.30;;;0.30;;
16624;SDS011;8426;48.496;9.098;2023-12-22T13:11:50;3.13;;;0.40;;
16624;SDS011;8426;48.496;9.098;2023-12-22T13:16:56;0.30;;;0.20;;
16624;SDS011;8426;48.496;9.098;2023-12-22T13:22:02;0.30;;;0.30;;
16624;SDS011;8426;48.496;9.098;2023-12-22T13:32:16;0.40;;;0.20;;
16624;SDS011;8426;48.496;9.098;2023-12-22T13:37:22;0.47;;;0.30;;
16624;SDS011;8426;48.496;9.098;2023-12-22T13:42:29;0.20;;;0.20;;
16624;SDS011;8426;48.496;9.098;2023-12-22T13:47:32;0.30;;;0.30;;
16624;SDS011;8426;48.496;9.098;2023-12-22T13:52:39;0.47;;;0.40;;
16624;SDS011;8426;48.496;9.098;2023-12-22T13:57:46;0.40;;;0.30;;
16624;SDS011;8426;48.496;9.098;2023-12-22T14:02:51;0.45;;;0.30;;
16624;SDS011;8426;48.496;9.098;2023-12-22T14:08:02;0.20;;;0.20;;
16624;SDS011;8426;48.496;9.098;2023-12-22T14:13:08;0.20;;;0.20;;
16624;SDS011;8426;48.496;9.098;2023-12-22T14:18:14;0.30;;;0.30;;
16624;SDS011;8426;48.496;9.098;2023-12-22T14:23:20;0.40;;;0.20;;
16624;SDS011;8426;48.496;9.098;2023-12-22T14:28:30;1.05;;;0.20;;
16624;SDS011;8426;48.496;9.098;2023-12-22T14:33:34;0.43;;;0.20;;
16624;SDS011;8426;48.496;9.098;2023-12-22T14:38:42;0.20;;;0.20;;
16624;SDS011;8426;48.496;9.098;2023-12-22T14:43:45;0.25;;;0.20;;
16624;SDS011;8426;48.496;9.098;2023-12-22T14:48:49;0.20;;;0.20;;
16624;SDS011;8426;48.496;9.098;2023-12-22T14:53:55;0.20;;;0.20;;
16624;SDS011;8426;48.496;9.098;2023-12-22T14:58:58;1.55;;;0.30;;
16624;SDS011;8426;48.496;9.098;2023-12-22T15:04:02;0.20;;;0.20;;
16624;SDS011;8426;48.496;9.098;2023-12-22T15:09:09;3.30;;;0.20;;
16624;SDS011;8426;48.496;9.098;2023-12-22T15:14:13;0.50;;;0.20;;
16624;SDS011;8426;48.496;9.098;2023-12-22T15:19:24;0.20;;;0.20;;
16624;SDS011;8426;48.496;9.098;2023-12-22T15:24:29;0.30;;;0.30;;
16624;SDS011;8426;48.496;9.098;2023-12-22T15:29:33;0.60;;;0.38;;
16624;SDS011;8426;48.496;9.098;2023-12-22T15:34:37;1.63;;;0.30;;
16624;SDS011;8426;48.496;9.098;2023-12-22T15:39:49;0.90;;;0.28;;
16624;SDS011;8426;48.496;9.098;2023-12-22T15:44:53;0.75;;;0.25;;
16624;SDS011;8426;48.496;9.098;2023-12-22T15:49:56;0.20;;;0.20;;
16624;SDS011;8426;48.496;9.098;2023-12-22T15:55:02;0.20;;;0.20;;
16624;SDS011;8426;48.496;9.098;2023-12-22T16:00:07;0.30;;;0.30;;
16624;SDS011;8426;48.496;9.098;2023-12-22T16:05:13;0.20;;;0.20;;
16624;SDS011;8426;48.496;9.098;2023-12-22T16:10:27;0.30;;;0.30;;
16624;SDS011;8426;48.496;9.098;2023-12-22T16:15:31;0.68;;;0.30;;
16624;SDS011;8426;48.496;9.098;2023-12-22T16:20:35;0.28;;;0.22;;
16624;SDS011;8426;48.496;9.098;2023-12-22T16:25:47;0.28;;;0.28;;
16624;SDS011;8426;48.496;9.098;2023-12-22T16:30:52;0.85;;;0.30;;
16624;SDS011;8426;48.496;9.098;2023-12-22T16:35:57;0.63;;;0.30;;
16624;SDS011;8426;48.496;9.098;2023-12-22T16:41:02;0.40;;;0.30;;
16624;SDS011;8426;48.496;9.098;2023-12-22T16:46:08;0.20;;;0.20;;
16624;SDS011;8426;48.496;9.098;2023-12-22T16:51:13;0.20;;;0.20;;
16624;SDS011;8426;48.496;9.098;2023-12-22T16:56:26;0.60;;;0.40;;
16624;SDS011;8426;48.496;9.098;2023-12-22T17:01:31;0.30;;;0.30;;
16624;SDS011;8426;48.496;9.098;2023-12-22T17:06:46;0.50;;;0.40;;
16624;SDS011;8426;48.496;9.098;2023-12-22T17:11:53;0.57;;;0.35;;
16624;SDS011;8426;48.496;9.098;2023-12-22T17:17:00;0.40;;;0.35;;
16624;SDS011;8426;48.496;9.098;2023-12-22T17:22:05;0.22;;;0.20;;
16624;SDS011;8426;48.496;9.098;2023-12-22T17:27:10;0.50;;;0.30;;
16624;SDS011;8426;48.496;9.098;2023-12-22T17:32:15;0.50;;;0.20;;
16624;SDS011;8426;48.496;9.098;2023-12-22T17:37:20;0.22;;;0.22;;
16624;SDS011;8426;48.496;9.098;2023-12-22T17:42:27;0.20;;;0.20;;
16624;SDS011;8426;48.496;9.098;2023-12-22T17:47:30;0.40;;;0.30;;
16624;SDS011;8426;48.496;9.098;2023-12-22T17:52:37;0.30;;;0.28;;
16624;SDS011;8426;48.496;9.098;2023-12-22T17:57:43;0.40;;;0.30;;
16624;SDS011;8426;48.496;9.098;2023-12-22T18:02:47;0.60;;;0.40;;
16624;SDS011;8426;48.496;9.098;2023-12-22T18:07:52;0.65;;;0.45;;
16624;SDS011;8426;48.496;9.098;2023-12-22T18:13:06;0.73;;;0.40;;
16624;SDS011;8426;48.496;9.098;2023-12-22T18:18:11;0.88;;;0.55;;
16624;SDS011;8426;48.496;9.098;2023-12-22T18:23:31;0.40;;;0.40;;
16624;SDS011;8426;48.496;9.098;2023-12-22T18:28:36;2.15;;;0.50;;
16624;SDS011;8426;48.496;9.098;2023-12-22T18:33:40;0.52;;;0.45;;
16624;SDS011;8426;48.496;9.098;2023-12-22T18:38:44;0.95;;;0.50;;
16624;SDS011;8426;48.496;9.098;2023-12-22T18:43:50;1.10;;;0.40;;
16624;SDS011;8426;48.496;9.098;2023-12-22T18:48:56;0.68;;;0.45;;
16624;SDS011;8426;48.496;9.098;2023-12-22T18:54:04;0.40;;;0.30;;
16624;SDS011;8426;48.496;9.098;2023-12-22T18:59:14;0.20;;;0.20;;
16624;SDS011;8426;48.496;9.098;2023-12-22T19:04:20;0.28;;;0.20;;
16624;SDS011;8426;48.496;9.098;2023-12-22T19:09:34;0.20;;;0.20;;
16624;SDS011;8426;48.496;9.098;2023-12-22T19:14:39;0.45;;;0.30;;
16624;SDS011;8426;48.496;9.098;2023-12-22T19:19:45;0.30;;;0.30;;
16624;SDS011;8426;48.496;9.098;2023-12-22T19:29:58;2.25;;;0.30;;
16624;SDS011;8426;48.496;9.098;2023-12-22T19:35:02;0.47;;;0.38;;
16624;SDS011;8426;48.496;9.098;2023-12-22T19:40:07;0.52;;;0.40;;
16624;SDS011;8426;48.496;9.098;2023-12-22T19:45:13;0.73;;;0.40;;
16624;SDS011;8426;48.496;9.098;2023-12-22T19:50:17;0.68;;;0.32;;
16624;SDS011;8426;48.496;9.098;2023-12-22T19:55:24;0.30;;;0.30;;
16624;SDS011;8426;48.496;9.098;2023-12-22T20:00:35;0.40;;;0.40;;
16624;SDS011;8426;48.496;9.098;2023-12-22T20:05:39;0.30;;;0.30;;
16624;SDS011;8426;48.496;9.098;2023-12-22T20:10:46;0.30;;;0.30;;
16624;SDS011;8426;48.496;9.098;2023-12-22T20:15:56;0.30;;;0.30;;
16624;SDS011;8426;48.496;9.098;2023-12-22T20:21:00;0.30;;;0.30;;
16624;SDS011;8426;48.496;9.098;2023-12-22T20:26:05;0.25;;;0.25;;
16624;SDS011;8426;48.496;9.098;2023-12-22T20:36:46;0.50;;;0.30;;
16624;SDS011;8426;48.496;9.098;2023-12-22T20:41:59;0.68;;;0.40;;
16624;SDS011;8426;48.496;9.098;2023-12-22T20:47:05;1.33;;;0.38;;
16624;SDS011;8426;48.496;9.098;2023-12-22T20:52:12;1.33;;;0.50;;
16624;SDS011;8426;48.496;9.098;2023-12-22T20:57:19;1.90;;;0.50;;
16624;SDS011;8426;48.496;9.098;2023-12-22T21:02:25;1.50;;;0.40;;
16624;SDS011;8426;48.496;9.098;2023-12-22T21:07:32;0.65;;;0.32;;
16624;SDS011;8426;48.496;9.098;2023-12-22T21:12:37;1.15;;;0.45;;
16624;SDS011;8426;48.496;9.098;2023-12-22T21:17:45;1.52;;;0.50;;
16624;SDS011;8426;48.496;9.098;2023-12-22T21:22:56;1.02;;;0.40;;
16624;SDS011;8426;48.496;9.098;2023-12-22T21:28:01;2.47;;;0.50;;
16624;SDS011;8426;48.496;9.098;2023-12-22T21:33:06;0.40;;;0.40;;
16624;SDS011;8426;48.496;9.098;2023-12-22T21:38:15;0.32;;;0.30;;
16624;SDS011;8426;48.496;9.098;2023-12-22T21:43:21;1.88;;;0.50;;
16624;SDS011;8426;48.496;9.098;2023-12-22T21:48:27;1.13;;;0.40;;
16624;SDS011;8426;48.496;9.098;2023-12-22T21:53:31;2.42;;;0.50;;
16624;SDS011;8426;48.496;9.098;2023-12-22T21:58:35;1.45;;;0.60;;
16624;SDS011;8426;48.496;9.098;2023-12-22T22:03:44;2.05;;;0.50;;
16624;SDS011;8426;48.496;9.098;2023-12-22T22:08:48;2.50;;;0.50;;
16624;SDS011;8426;48.496;9.098;2023-12-22T22:13:57;1.45;;;0.50;;
16624;SDS011;8426;48.496;9.098;2023-12-22T22:19:06;1.20;;;0.52;;
16624;SDS011;8426;48.496;9.098;2023-12-22T22:24:14;2.15;;;0.60;;
16624;SDS011;8426;48.496;9.098;2023-12-22T22:29:17;0.50;;;0.40;;
16624;SDS011;8426;48.496;9.098;2023-12-22T22:34:24;0.50;;;0.40;;
16624;SDS011;8426;48.496;9.098;2023-12-22T22:39:29;1.50;;;0.52;;
16624;SDS011;8426;48.496;9.098;2023-12-22T22:44:37;0.70;;;0.40;;
16624;SDS011;8426;48.496;9.098;2023-12-22T22:49:47;0.73;;;0.40;;
16624;SDS011;8426;48.496;9.098;2023-12-22T22:54:58;0.68;;;0.40;;
16624;SDS011;8426;48.496;9.098;2023-12-22T23:00:02;0.45;;;0.43;;
16624;SDS011;8426;48.496;9.098;2023-12-22T23:05:18;3.13;;;0.75;;
16624;SDS011;8426;48.496;9.098;2023-12-22T23:10:21;3.30;;;0.50;;
16624;SDS011;8426;48.496;9.098;2023-12-22T23:15:27;1.17;;;0.40;;
16624;SDS011;8426;48.496;9.098;2023-12-22T23:20:32;2.38;;;0.60;;
16624;SDS011;8426;48.496;9.098;2023-12-22T23:25:53;1.35;;;0.55;;
16624;SDS011;8426;48.496;9.098;2023-12-22T23:30:56;2.45;;;0.60;;
16624;SDS011;8426;48.496;9.098;2023-12-22T23:36:01;1.58;;;0.68;;
16624;SDS011;8426;48.496;9.098;2023-12-22T23:41:22;4.70;;;0.55;;
16624;SDS011;8426;48.496;9.098;2023-12-22T23:46:27;2.40;;;0.88;;
16624;SDS011;8426;48.496;9.098;2023-12-22T23:51:33;1.38;;;0.40;;
16624;SDS011;8426;48.496;9.098;2023-12-22T23:56:44;2.00;;;0.50;;
